CYDQ

Dawson Creek Airport

Dawson Creek, British Columbia, Canada
METAR CYDQ 211500Z AUTO 10005KT 9SM FEW240 04/02 A2974 RMK SLP096
Observed Flight Rules
Apr-21 @ 15:00 UTC (41 minutes ago) Visual Flight Rules
Wind Visibility Clouds
100° at 5 knots 9 miles
  • Few at 24,000' AGL
Temperatures Readings
Current 4°C / 39°F
Dewpoint 2°C / 36°F
Humidity 87%
Altimeter 29.74" Hg
Pressure 1009.6 hPa
Elevation 655
METAR CYDQ 211500Z AUTO 10005KT 9SM FEW240 04/02 A2974 RMK SLP096
Observed Flight Rules
Apr-21 @ 15:00 UTC
(41 minutes ago)
VFR
Wind Visibility
100° at 5 knots 9 miles
Clouds
  • Few at 24,000' AGL
Temperature Dewpoint
4°C / 39°F 2°C / 36°F
Humidity Altimeter Pressure
87% 29.74" Hg 1009.6 hPa